createdAt,value
2019-01-04T00:01:36.169Z,4.40
2019-01-04T00:04:09.342Z,4.50
2019-01-04T00:06:39.649Z,4.30
2019-01-04T00:09:10.409Z,4.20
2019-01-04T00:11:40.844Z,4.20
2019-01-04T00:14:11.562Z,4.20
2019-01-04T00:16:42.575Z,4.10
2019-01-04T00:19:12.924Z,4.00
2019-01-04T00:21:43.309Z,4.10
2019-01-04T00:24:13.646Z,4.10
2019-01-04T00:26:43.901Z,4.20
2019-01-04T00:29:14.189Z,3.30
2019-01-04T00:31:44.482Z,3.00
2019-01-04T00:34:14.757Z,2.80
2019-01-04T00:36:45.068Z,2.70
2019-01-04T00:39:15.340Z,2.60
2019-01-04T00:41:45.646Z,2.60
2019-01-04T00:44:15.948Z,2.60
2019-01-04T00:46:46.277Z,2.60
2019-01-04T00:49:16.585Z,2.40
2019-01-04T00:51:46.871Z,2.50
2019-01-04T00:54:17.142Z,2.60
2019-01-04T00:57:28.789Z,2.90
2019-01-04T01:00:36.027Z,3.10
2019-01-04T01:03:56.545Z,3.20
2019-01-04T01:07:13.776Z,3.20
2019-01-04T01:10:23.844Z,2.70
2019-01-04T01:13:44.145Z,2.30
2019-01-04T01:17:10.391Z,2.60
2019-01-04T01:20:26.404Z,2.60
2019-01-04T01:23:30.717Z,2.50
2019-01-04T01:26:44.229Z,2.40
2019-01-04T01:29:56.029Z,2.30
2019-01-04T01:33:22.313Z,2.40
2019-01-04T01:36:25.729Z,2.40
2019-01-04T01:39:58.322Z,2.50
2019-01-04T01:43:04.163Z,2.50
2019-01-04T01:45:55.725Z,2.40
2019-01-04T01:48:39.106Z,2.60
2019-01-04T01:51:54.412Z,2.40
2019-01-04T01:54:24.734Z,2.20
2019-01-04T01:56:54.998Z,2.60
2019-01-04T01:59:25.401Z,2.70
2019-01-04T02:01:55.732Z,3.00
2019-01-04T02:04:26.064Z,3.00
2019-01-04T02:06:56.358Z,3.20
2019-01-04T02:09:26.666Z,3.00
2019-01-04T02:11:56.973Z,3.00
2019-01-04T02:14:27.255Z,2.70
2019-01-04T02:16:57.555Z,2.60
2019-01-04T02:19:27.841Z,2.30
2019-01-04T02:21:58.162Z,2.40
2019-01-04T02:24:28.467Z,2.60
2019-01-04T02:26:58.768Z,2.90
2019-01-04T02:29:29.058Z,3.10
2019-01-04T02:31:59.371Z,3.00
2019-01-04T02:34:29.645Z,2.90
2019-01-04T02:36:59.969Z,2.70
2019-01-04T02:39:30.274Z,2.60
2019-01-04T02:42:00.554Z,2.80
2019-01-04T02:44:30.868Z,2.90
2019-01-04T02:47:01.157Z,3.00
2019-01-04T02:49:31.492Z,3.00
2019-01-04T02:52:01.775Z,2.60
2019-01-04T02:54:32.103Z,2.40
2019-01-04T02:57:02.387Z,2.60
2019-01-04T02:59:32.715Z,2.70
2019-01-04T03:02:03.862Z,2.80
2019-01-04T03:04:34.156Z,2.90
2019-01-04T03:07:04.446Z,2.60
2019-01-04T03:09:34.727Z,2.60
2019-01-04T03:12:05.043Z,2.50
2019-01-04T03:14:36.381Z,2.60
2019-01-04T03:17:06.694Z,2.70
2019-01-04T03:19:36.966Z,2.60
2019-01-04T03:22:07.296Z,2.70
2019-01-04T03:24:37.583Z,2.90
2019-01-04T03:27:07.872Z,2.90
2019-01-04T03:29:38.161Z,3.00
2019-01-04T03:32:08.529Z,2.70
2019-01-04T03:34:38.845Z,2.70
2019-01-04T03:37:09.147Z,2.70
2019-01-04T03:39:39.417Z,2.20
2019-01-04T03:42:09.722Z,2.00
2019-01-04T03:44:39.999Z,1.90
2019-01-04T03:47:10.305Z,2.20
2019-01-04T03:49:40.610Z,2.00
2019-01-04T03:52:10.925Z,1.80
2019-01-04T03:54:42.178Z,1.70
2019-01-04T03:57:12.468Z,2.10
2019-01-04T03:59:42.730Z,2.30
2019-01-04T04:02:13.094Z,2.20
2019-01-04T04:04:43.379Z,1.90
2019-01-04T04:07:13.878Z,1.80
2019-01-04T04:09:44.174Z,1.80
2019-01-04T04:12:14.479Z,1.90
2019-01-04T04:14:44.775Z,2.00
2019-01-04T04:17:15.136Z,1.80
2019-01-04T04:19:45.461Z,2.00
2019-01-04T04:22:15.799Z,2.10
2019-01-04T04:24:46.089Z,2.20
2019-01-04T04:27:16.388Z,2.30
2019-01-04T04:29:46.668Z,2.40
2019-01-04T04:32:16.962Z,2.50
2019-01-04T04:34:47.235Z,2.60
2019-01-04T04:37:17.560Z,2.50
2019-01-04T04:39:47.864Z,2.50
2019-01-04T04:42:18.254Z,2.50
2019-01-04T04:44:48.530Z,2.50
2019-01-04T04:47:18.828Z,2.60
2019-01-04T04:49:49.102Z,2.80
2019-01-04T04:52:19.424Z,2.90
2019-01-04T04:54:49.688Z,3.00
2019-01-04T04:57:19.980Z,3.00
2019-01-04T04:59:50.271Z,3.10
2019-01-04T05:02:20.598Z,2.90
2019-01-04T05:04:50.940Z,3.00
2019-01-04T05:07:21.248Z,3.10
2019-01-04T05:09:52.504Z,2.90
2019-01-04T05:12:22.790Z,3.00
2019-01-04T05:14:53.097Z,3.20
2019-01-04T05:17:23.399Z,3.00
2019-01-04T05:19:53.704Z,3.20
2019-01-04T05:22:24.005Z,3.30
2019-01-04T05:24:54.322Z,3.20
2019-01-04T05:27:24.635Z,3.20
2019-01-04T05:29:54.955Z,3.00
2019-01-04T05:32:25.280Z,3.00
2019-01-04T05:34:55.700Z,3.00
2019-01-04T05:37:25.969Z,2.90
2019-01-04T05:39:56.285Z,2.90
2019-01-04T05:42:26.570Z,2.90
2019-01-04T05:44:56.873Z,2.90
2019-01-04T05:47:27.178Z,2.80
2019-01-04T05:49:57.472Z,2.90
2019-01-04T05:52:27.797Z,2.90
2019-01-04T05:54:58.077Z,2.80
2019-01-04T05:57:28.376Z,3.00
2019-01-04T05:59:58.689Z,2.80
2019-01-04T06:02:28.969Z,2.70
2019-01-04T06:04:59.280Z,2.70
2019-01-04T06:07:29.572Z,2.90
2019-01-04T06:09:59.879Z,3.00
2019-01-04T06:12:30.171Z,2.90
2019-01-04T06:15:00.490Z,3.10
2019-01-04T06:17:30.767Z,3.30
2019-01-04T06:20:01.145Z,3.40
2019-01-04T06:22:31.408Z,3.50
2019-01-04T06:25:01.749Z,3.40
2019-01-04T06:27:32.035Z,3.50
2019-01-04T06:30:02.343Z,3.50
2019-01-04T06:32:32.685Z,3.70
2019-01-04T06:35:03.019Z,3.70
2019-01-04T06:37:33.292Z,3.50
2019-01-04T06:40:03.655Z,3.70
2019-01-04T06:42:33.939Z,3.70
2019-01-04T06:45:04.811Z,3.90
2019-01-04T06:47:35.635Z,3.50
2019-01-04T06:50:07.189Z,3.50
2019-01-04T06:52:37.467Z,3.40
2019-01-04T06:55:50.297Z,3.60
2019-01-04T06:58:20.656Z,3.80
2019-01-04T07:00:50.966Z,4.00
2019-01-04T07:03:21.269Z,3.80
2019-01-04T07:05:51.556Z,3.90
2019-01-04T07:08:21.861Z,4.10
2019-01-04T07:10:52.164Z,4.10
2019-01-04T07:13:22.446Z,3.80
2019-01-04T07:15:52.757Z,3.80
2019-01-04T07:18:23.037Z,4.00
2019-01-04T07:20:54.332Z,3.80
2019-01-04T07:23:24.865Z,3.80
2019-01-04T07:25:55.262Z,3.70
2019-01-04T07:28:26.472Z,3.70
2019-01-04T07:30:56.914Z,3.70
2019-01-04T07:33:27.327Z,3.70
2019-01-04T07:35:57.693Z,3.80
2019-01-04T07:38:28.474Z,3.70
2019-01-04T07:40:59.224Z,3.70
2019-01-04T07:43:29.632Z,3.80
2019-01-04T07:45:59.981Z,3.70
2019-01-04T07:48:30.338Z,3.80
2019-01-04T07:51:02.365Z,3.70
2019-01-04T07:53:32.729Z,3.80
2019-01-04T07:56:03.773Z,3.70
2019-01-04T07:58:34.573Z,3.90
2019-01-04T08:01:05.156Z,4.00
2019-01-04T08:03:36.062Z,4.10
2019-01-04T08:06:10.285Z,4.10
2019-01-04T08:08:52.472Z,3.90
2019-01-04T08:11:23.042Z,3.90
2019-01-04T08:13:53.876Z,3.90
2019-01-04T08:16:24.697Z,3.70
2019-01-04T08:18:55.295Z,3.70
2019-01-04T08:21:26.216Z,4.00
2019-01-04T08:23:57.243Z,4.10
2019-01-04T08:26:27.729Z,3.80
2019-01-04T08:28:58.055Z,3.80
2019-01-04T08:31:28.399Z,3.90
2019-01-04T08:33:58.755Z,4.00
2019-01-04T08:36:29.105Z,4.20
2019-01-04T08:38:59.416Z,4.10
2019-01-04T08:41:29.713Z,4.30
2019-01-04T08:44:00.013Z,4.20
2019-01-04T08:46:30.318Z,4.40
2019-01-04T08:49:00.653Z,4.50
2019-01-04T08:51:30.999Z,4.50
2019-01-04T08:54:04.467Z,4.40
2019-01-04T08:56:36.720Z,4.20
2019-01-04T08:59:07.029Z,4.30
2019-01-04T09:01:37.337Z,4.10
2019-01-04T09:04:07.639Z,3.90
2019-01-04T09:06:37.913Z,4.00
2019-01-04T09:09:09.166Z,3.90
2019-01-04T09:11:39.534Z,4.10
2019-01-04T09:14:09.823Z,4.00
2019-01-04T09:16:40.135Z,4.10
2019-01-04T09:19:10.428Z,4.20
2019-01-04T09:21:40.709Z,4.50
2019-01-04T09:24:11.015Z,4.20
2019-01-04T09:26:41.298Z,4.20
2019-01-04T09:29:11.598Z,4.30
2019-01-04T09:31:41.866Z,4.40
2019-01-04T09:34:12.163Z,4.20
2019-01-04T09:36:42.436Z,4.20
2019-01-04T09:39:12.758Z,4.50
2019-01-04T09:41:46.866Z,4.60
2019-01-04T09:44:17.532Z,4.60
2019-01-04T09:46:47.876Z,4.80
2019-01-04T09:49:18.214Z,4.80
2019-01-04T09:51:48.508Z,5.00
2019-01-04T09:54:18.857Z,5.00
2019-01-04T09:56:54.476Z,5.10
2019-01-04T09:59:25.808Z,5.10
2019-01-04T10:01:56.157Z,5.00
2019-01-04T10:04:26.463Z,5.20
2019-01-04T10:06:56.768Z,5.20
2019-01-04T10:09:27.079Z,5.00
2019-01-04T10:11:57.502Z,5.00
2019-01-04T10:14:27.916Z,5.10
2019-01-04T10:16:58.252Z,5.00
2019-01-04T10:19:28.547Z,5.00
2019-01-04T10:21:59.181Z,5.20
2019-01-04T10:24:29.686Z,5.20
2019-01-04T10:27:00.160Z,5.00
2019-01-04T10:29:30.679Z,5.00
2019-01-04T10:32:01.151Z,5.20
2019-01-04T10:34:31.473Z,5.40
2019-01-04T10:37:01.858Z,5.50
2019-01-04T10:39:32.238Z,5.50
2019-01-04T10:42:02.681Z,5.40
2019-01-04T10:44:33.415Z,5.40
2019-01-04T10:47:04.101Z,5.30
2019-01-04T10:49:34.497Z,5.30
2019-01-04T10:52:04.992Z,5.30
2019-01-04T10:54:35.339Z,5.60
2019-01-04T10:57:07.173Z,5.60
2019-01-04T10:59:37.537Z,5.90
2019-01-04T11:02:08.421Z,6.00
2019-01-04T11:04:39.083Z,6.00
2019-01-04T11:07:09.402Z,6.20
2019-01-04T11:09:39.982Z,5.90
2019-01-04T11:12:10.350Z,6.00
2019-01-04T11:14:40.644Z,6.10
2019-01-04T11:17:10.949Z,6.10
2019-01-04T11:19:41.257Z,5.80
2019-01-04T11:22:47.386Z,5.70
2019-01-04T11:26:10.950Z,5.90
2019-01-04T11:29:21.943Z,6.00
2019-01-04T11:32:02.999Z,6.20
2019-01-04T11:35:07.163Z,6.10
2019-01-04T11:37:47.253Z,6.40
2019-01-04T11:40:46.115Z,6.20
2019-01-04T11:43:54.537Z,6.20
2019-01-04T11:46:44.361Z,6.50
2019-01-04T11:49:42.327Z,6.40
2019-01-04T11:52:31.569Z,6.60
2019-01-04T11:55:01.861Z,6.10
2019-01-04T11:57:32.194Z,5.90
2019-01-04T12:00:02.509Z,6.10
2019-01-04T12:02:33.922Z,6.00
2019-01-04T12:05:04.345Z,5.90
2019-01-04T12:07:35.691Z,5.70
2019-01-04T12:10:06.629Z,5.50
2019-01-04T12:12:38.004Z,5.60
2019-01-04T12:15:08.379Z,5.50
2019-01-04T12:17:38.702Z,5.50
2019-01-04T12:20:09.158Z,5.70
2019-01-04T12:22:39.495Z,6.00
2019-01-04T12:25:09.807Z,5.80
2019-01-04T12:27:40.105Z,5.80
2019-01-04T12:30:11.519Z,5.80
2019-01-04T12:32:41.855Z,5.90
2019-01-04T12:35:14.047Z,6.00
2019-01-04T12:37:45.529Z,5.90
2019-01-04T12:40:15.888Z,6.00
2019-01-04T12:42:46.217Z,6.20
2019-01-04T12:45:16.541Z,6.30
2019-01-04T12:47:48.001Z,6.30
2019-01-04T12:50:18.365Z,6.10
2019-01-04T12:52:51.253Z,6.10
2019-01-04T12:55:23.214Z,6.20
2019-01-04T12:57:54.649Z,6.30
2019-01-04T13:00:24.986Z,6.10
2019-01-04T13:02:55.362Z,6.00
2019-01-04T13:05:25.751Z,6.00
2019-01-04T13:07:58.528Z,5.80
2019-01-04T13:10:28.044Z,5.70
2019-01-04T13:12:58.384Z,5.60
2019-01-04T13:15:31.635Z,5.50
2019-01-04T13:18:03.298Z,5.50
2019-01-04T13:20:33.621Z,5.60
2019-01-04T13:23:03.977Z,5.70
2019-01-04T13:25:34.253Z,5.80
2019-01-04T13:28:06.004Z,5.70
2019-01-04T13:30:36.375Z,5.90
2019-01-04T13:33:06.954Z,5.70
2019-01-04T13:35:38.964Z,5.50
2019-01-04T13:38:09.360Z,5.60
2019-01-04T13:40:39.944Z,5.60
2019-01-04T13:43:10.256Z,5.30
2019-01-04T13:45:40.598Z,5.40
2019-01-04T13:48:10.960Z,5.40
2019-01-04T13:50:41.328Z,5.50
2019-01-04T13:53:12.042Z,5.60
2019-01-04T13:55:42.749Z,5.70
2019-01-04T13:58:13.471Z,5.90
2019-01-04T14:00:43.781Z,5.70
2019-01-04T14:03:14.117Z,5.60
2019-01-04T14:05:44.418Z,5.50
2019-01-04T14:08:14.718Z,5.50
2019-01-04T14:10:45.029Z,5.40
2019-01-04T14:13:15.398Z,5.30
2019-01-04T14:15:45.700Z,5.50
2019-01-04T14:18:16.056Z,5.30
2019-01-04T14:20:46.412Z,5.20
2019-01-04T14:23:17.158Z,5.10
2019-01-04T14:25:49.337Z,5.20
2019-01-04T14:28:21.389Z,5.10
2019-01-04T14:30:52.456Z,5.10
2019-01-04T14:33:26.071Z,5.10
2019-01-04T14:35:57.265Z,5.10
2019-01-04T14:38:27.744Z,5.20
2019-01-04T14:40:57.979Z,5.20
2019-01-04T14:43:28.240Z,5.20
2019-01-04T14:45:58.520Z,5.30
2019-01-04T14:48:28.817Z,5.20
2019-01-04T14:50:59.924Z,5.00
2019-01-04T14:53:30.256Z,5.10
2019-01-04T14:56:00.549Z,5.10
2019-01-04T14:58:32.386Z,5.10
2019-01-04T15:01:02.598Z,5.20
2019-01-04T15:03:32.947Z,5.10
2019-01-04T15:06:03.280Z,5.10
2019-01-04T15:08:33.597Z,5.10
2019-01-04T15:11:03.851Z,5.00
2019-01-04T15:13:34.142Z,5.00
2019-01-04T15:16:04.419Z,5.00
2019-01-04T15:18:34.772Z,5.10
2019-01-04T15:21:05.176Z,5.20
2019-01-04T15:23:35.645Z,5.30
2019-01-04T15:26:05.943Z,5.40
2019-01-04T15:28:37.572Z,5.30
2019-01-04T15:31:08.895Z,5.40
2019-01-04T15:33:39.659Z,5.50
2019-01-04T15:36:10.175Z,5.60
2019-01-04T15:38:41.408Z,5.40
2019-01-04T15:41:12.069Z,5.50
2019-01-04T15:43:42.954Z,5.50
2019-01-04T15:46:16.893Z,5.50
2019-01-04T15:48:47.332Z,5.50
2019-01-04T15:51:18.167Z,5.40
2019-01-04T15:53:49.470Z,5.60
2019-01-04T15:56:21.229Z,5.50
2019-01-04T15:58:53.056Z,5.70
2019-01-04T16:01:24.259Z,5.80
2019-01-04T16:03:55.062Z,5.80
2019-01-04T16:06:25.496Z,5.90
2019-01-04T16:08:56.576Z,5.80
2019-01-04T16:11:28.183Z,5.80
2019-01-04T16:14:00.989Z,5.80
2019-01-04T16:16:32.533Z,5.80
2019-01-04T16:19:03.806Z,5.90
2019-01-04T16:21:35.559Z,5.90
2019-01-04T16:24:08.341Z,6.00
2019-01-04T16:26:38.729Z,6.00
2019-01-04T16:29:09.225Z,5.90
2019-01-04T16:31:44.375Z,5.90
2019-01-04T16:34:18.474Z,5.80
2019-01-04T16:36:50.356Z,5.80
2019-01-04T16:39:25.035Z,5.90
2019-01-04T16:41:57.455Z,6.00
2019-01-04T16:44:28.880Z,6.00
2019-01-04T16:47:00.264Z,6.00
2019-01-04T16:49:37.241Z,5.80
2019-01-04T16:52:10.648Z,5.60
2019-01-04T16:54:41.928Z,5.60
2019-01-04T16:57:12.956Z,5.60
2019-01-04T16:59:43.300Z,5.60
2019-01-04T17:02:15.197Z,5.50
2019-01-04T17:04:45.925Z,5.50
2019-01-04T17:07:17.365Z,5.50
2019-01-04T17:09:48.136Z,5.30
2019-01-04T17:12:19.448Z,5.20
2019-01-04T17:14:50.955Z,5.20
2019-01-04T17:17:23.616Z,5.30
2019-01-04T17:19:54.816Z,5.20
2019-01-04T17:22:28.269Z,5.20
2019-01-04T17:25:00.279Z,5.30
2019-01-04T17:27:33.342Z,5.30
2019-01-04T17:30:04.342Z,5.10
2019-01-04T17:32:35.183Z,5.20
2019-01-04T17:35:06.781Z,5.20
2019-01-04T17:37:37.689Z,5.30
2019-01-04T17:40:14.633Z,5.20
2019-01-04T17:42:46.999Z,5.20
2019-01-04T17:45:17.402Z,5.10
2019-01-04T17:47:48.763Z,5.20
2019-01-04T17:50:21.571Z,5.20
2019-01-04T17:52:52.878Z,5.10
2019-01-04T17:55:23.283Z,5.20
2019-01-04T17:57:54.459Z,5.10
2019-01-04T18:00:26.362Z,5.20
2019-01-04T18:03:00.798Z,5.20
2019-01-04T18:05:32.485Z,5.20
2019-01-04T18:08:06.211Z,5.30
2019-01-04T18:10:37.784Z,5.40
2019-01-04T18:13:09.339Z,5.30
2019-01-04T18:15:39.858Z,5.40
2019-01-04T18:18:11.024Z,5.20
2019-01-04T18:20:42.374Z,5.10
2019-01-04T18:23:13.825Z,5.20
2019-01-04T18:25:45.611Z,5.30
2019-01-04T18:28:17.443Z,5.20
2019-01-04T18:30:48.860Z,5.20
2019-01-04T18:33:21.633Z,5.30
2019-01-04T18:35:53.111Z,5.30
2019-01-04T18:38:24.664Z,5.30
2019-01-04T18:40:55.835Z,5.30
2019-01-04T18:43:27.594Z,5.10
2019-01-04T18:45:58.885Z,5.10
2019-01-04T18:48:31.518Z,5.20
2019-01-04T18:51:05.505Z,5.10
2019-01-04T18:53:37.119Z,5.10
2019-01-04T18:56:07.808Z,5.10
2019-01-04T18:58:39.289Z,5.00
2019-01-04T19:01:13.675Z,5.10
2019-01-04T19:03:41.574Z,5.10
2019-01-04T19:06:11.949Z,5.10
2019-01-04T19:08:42.372Z,5.00
2019-01-04T19:11:14.744Z,4.90
2019-01-04T19:13:45.190Z,4.80
2019-01-04T19:16:15.515Z,4.90
2019-01-04T19:18:46.096Z,5.00
2019-01-04T19:21:18.904Z,5.10
2019-01-04T19:24:03.233Z,5.00
2019-01-04T19:26:35.006Z,5.00
2019-01-04T19:29:06.791Z,5.00
2019-01-04T19:31:38.897Z,4.90
2019-01-04T19:34:11.347Z,5.00
2019-01-04T19:36:44.114Z,5.00
2019-01-04T19:39:20.095Z,4.90
2019-01-04T19:41:52.382Z,4.80
2019-01-04T19:44:24.289Z,5.00
2019-01-04T19:46:57.271Z,5.10
2019-01-04T19:49:30.327Z,5.10
2019-01-04T19:52:03.671Z,5.10
2019-01-04T19:54:35.293Z,5.10
2019-01-04T19:57:06.611Z,5.20
2019-01-04T19:59:42.106Z,5.20
2019-01-04T20:02:14.380Z,5.20
2019-01-04T20:04:46.281Z,5.30
2019-01-04T20:08:02.832Z,5.40
2019-01-04T20:11:38.004Z,5.50
2019-01-04T20:15:10.106Z,5.70
2019-01-04T20:18:06.898Z,5.40
2019-01-04T20:20:56.686Z,5.40
2019-01-04T20:23:50.180Z,5.50
2019-01-04T20:26:44.546Z,5.40
2019-01-04T20:29:43.818Z,5.30
2019-01-04T20:32:36.190Z,5.30
2019-01-04T20:35:32.887Z,5.30
2019-01-04T20:38:25.629Z,5.20
2019-01-04T20:41:24.421Z,5.40
2019-01-04T20:44:16.311Z,5.40
2019-01-04T20:47:15.024Z,5.50
2019-01-04T20:50:11.365Z,5.30
2019-01-04T20:53:00.191Z,5.30
2019-01-04T20:55:59.825Z,5.40
2019-01-04T20:58:53.155Z,5.20
2019-01-04T21:01:55.256Z,5.20
2019-01-04T21:05:05.310Z,5.30
2019-01-04T21:07:57.094Z,5.30
2019-01-04T21:10:56.093Z,5.30
2019-01-04T21:13:49.362Z,5.30
2019-01-04T21:16:53.771Z,5.20
2019-01-04T21:19:43.337Z,5.20
2019-01-04T21:22:35.631Z,5.20
2019-01-04T21:25:25.147Z,5.30
2019-01-04T21:28:15.544Z,5.40
2019-01-04T21:31:03.953Z,5.40
2019-01-04T21:33:59.771Z,5.40
2019-01-04T21:36:48.726Z,5.50
2019-01-04T21:39:53.825Z,5.50
2019-01-04T21:42:37.957Z,5.40
2019-01-04T21:45:33.505Z,5.50
2019-01-04T21:48:26.410Z,5.50
2019-01-04T21:51:22.728Z,5.30
2019-01-04T21:54:27.763Z,5.30
2019-01-04T21:57:15.678Z,5.30
2019-01-04T22:00:11.114Z,5.40
2019-01-04T22:02:57.834Z,5.40
2019-01-04T22:05:45.956Z,5.40
2019-01-04T22:08:34.083Z,5.30
2019-01-04T22:11:22.228Z,5.30
2019-01-04T22:14:11.464Z,5.20
2019-01-04T22:16:56.238Z,5.30
2019-01-04T22:20:00.848Z,5.30
2019-01-04T22:23:08.270Z,5.30
2019-01-04T22:25:56.392Z,5.30
2019-01-04T22:29:00.829Z,5.40
2019-01-04T22:32:08.794Z,5.30
2019-01-04T22:34:57.122Z,5.50
2019-01-04T22:37:39.679Z,5.40
2019-01-04T22:40:41.015Z,5.40
2019-01-04T22:43:29.022Z,5.40
2019-01-04T22:46:20.472Z,5.20
2019-01-04T22:49:08.623Z,5.30
2019-01-04T22:51:56.871Z,5.40
2019-01-04T22:54:46.118Z,5.30
2019-01-04T22:57:47.573Z,5.20
2019-01-04T23:00:46.056Z,5.20
2019-01-04T23:03:35.081Z,5.20
2019-01-04T23:06:23.439Z,5.20
2019-01-04T23:09:28.119Z,5.30
2019-01-04T23:12:16.269Z,5.30
2019-01-04T23:15:23.957Z,5.40
2019-01-04T23:18:25.481Z,5.30
2019-01-04T23:21:20.135Z,5.30
2019-01-04T23:24:08.341Z,5.40
2019-01-04T23:26:56.371Z,5.30
2019-01-04T23:29:44.298Z,5.40
2019-01-04T23:32:32.510Z,5.20
2019-01-04T23:35:30.663Z,5.20
2019-01-04T23:38:32.314Z,5.10
2019-01-04T23:41:15.017Z,5.10
2019-01-04T23:44:03.102Z,5.10
2019-01-04T23:46:50.945Z,5.10
2019-01-04T23:49:55.629Z,5.00
2019-01-04T23:52:44.063Z,5.00
2019-01-04T23:55:26.407Z,5.00
2019-01-04T23:58:27.870Z,4.90
